sensor_id;sensor_type;location;lat;lon;timestamp;pressure;altitude;pressure_sealevel;temperature;humidity
84835;BME280;75078;42.636;23.198;2024-03-17T00:00:41;92335.19;;;4.61;77.65
84835;BME280;75078;42.636;23.198;2024-03-17T00:03:07;92342.53;;;4.63;78.70
84835;BME280;75078;42.636;23.198;2024-03-17T00:05:36;92336.09;;;4.65;78.24
84835;BME280;75078;42.636;23.198;2024-03-17T00:08:06;92334.75;;;4.68;78.29
84835;BME280;75078;42.636;23.198;2024-03-17T00:10:31;92336.84;;;4.66;77.86
84835;BME280;75078;42.636;23.198;2024-03-17T00:12:57;92331.72;;;4.57;78.81
84835;BME280;75078;42.636;23.198;2024-03-17T00:15:25;92333.56;;;4.57;79.07
84835;BME280;75078;42.636;23.198;2024-03-17T00:17:51;92337.91;;;4.56;78.44
84835;BME280;75078;42.636;23.198;2024-03-17T00:20:16;92338.66;;;4.57;78.13
84835;BME280;75078;42.636;23.198;2024-03-17T00:22:48;92337.72;;;4.53;76.53
84835;BME280;75078;42.636;23.198;2024-03-17T00:25:13;92339.09;;;4.50;76.81
84835;BME280;75078;42.636;23.198;2024-03-17T00:27:39;92339.69;;;4.47;78.15
84835;BME280;75078;42.636;23.198;2024-03-17T00:30:06;92332.50;;;4.49;77.40
84835;BME280;75078;42.636;23.198;2024-03-17T00:32:35;92335.34;;;4.48;77.12
84835;BME280;75078;42.636;23.198;2024-03-17T00:35:01;92332.34;;;4.46;78.40
84835;BME280;75078;42.636;23.198;2024-03-17T00:37:26;92328.44;;;4.40;78.27
84835;BME280;75078;42.636;23.198;2024-03-17T00:39:52;92331.91;;;4.35;78.42
84835;BME280;75078;42.636;23.198;2024-03-17T00:42:17;92330.25;;;4.30;78.89
84835;BME280;75078;42.636;23.198;2024-03-17T00:44:44;92320.97;;;4.17;78.23
84835;BME280;75078;42.636;23.198;2024-03-17T00:47:09;92323.94;;;4.19;77.64
84835;BME280;75078;42.636;23.198;2024-03-17T00:49:34;92322.44;;;4.18;78.25
84835;BME280;75078;42.636;23.198;2024-03-17T00:52:00;92328.16;;;4.15;78.57
84835;BME280;75078;42.636;23.198;2024-03-17T00:54:25;92330.97;;;4.14;78.48
84835;BME280;75078;42.636;23.198;2024-03-17T00:56:51;92333.84;;;4.12;78.45
84835;BME280;75078;42.636;23.198;2024-03-17T00:59:16;92329.03;;;4.11;77.35
84835;BME280;75078;42.636;23.198;2024-03-17T01:01:41;92335.78;;;4.15;77.40
84835;BME280;75078;42.636;23.198;2024-03-17T01:04:09;92330.09;;;4.18;78.50
84835;BME280;75078;42.636;23.198;2024-03-17T01:06:34;92332.03;;;4.21;78.42
84835;BME280;75078;42.636;23.198;2024-03-17T01:08:59;92327.84;;;4.17;77.92
84835;BME280;75078;42.636;23.198;2024-03-17T01:11:25;92325.47;;;4.20;77.33
84835;BME280;75078;42.636;23.198;2024-03-17T01:13:50;92330.38;;;4.17;77.62
84835;BME280;75078;42.636;23.198;2024-03-17T01:16:16;92327.84;;;4.17;78.00
84835;BME280;75078;42.636;23.198;2024-03-17T01:18:41;92331.75;;;4.14;78.70
84835;BME280;75078;42.636;23.198;2024-03-17T01:21:08;92328.88;;;4.07;78.55
84835;BME280;75078;42.636;23.198;2024-03-17T01:23:34;92328.44;;;4.05;78.74
84835;BME280;75078;42.636;23.198;2024-03-17T01:25:59;92327.97;;;4.03;78.31
84835;BME280;75078;42.636;23.198;2024-03-17T01:28:24;92328.56;;;4.00;78.47
84835;BME280;75078;42.636;23.198;2024-03-17T01:30:51;92329.03;;;4.02;78.77
84835;BME280;75078;42.636;23.198;2024-03-17T01:33:16;92335.16;;;4.01;78.44
84835;BME280;75078;42.636;23.198;2024-03-17T01:35:43;92334.88;;;4.03;78.10
84835;BME280;75078;42.636;23.198;2024-03-17T01:38:08;92332.94;;;4.00;79.12
84835;BME280;75078;42.636;23.198;2024-03-17T01:40:35;92332.91;;;3.91;78.95
84835;BME280;75078;42.636;23.198;2024-03-17T01:43:01;92327.34;;;3.89;78.63
84835;BME280;75078;42.636;23.198;2024-03-17T01:45:29;92330.50;;;3.86;79.04
84835;BME280;75078;42.636;23.198;2024-03-17T01:47:55;92334.22;;;3.80;79.25
84835;BME280;75078;42.636;23.198;2024-03-17T01:50:32;92331.97;;;3.70;78.73
84835;BME280;75078;42.636;23.198;2024-03-17T01:53:01;92326.56;;;3.63;77.99
84835;BME280;75078;42.636;23.198;2024-03-17T01:55:27;92325.78;;;3.54;78.19
84835;BME280;75078;42.636;23.198;2024-03-17T01:57:53;92336.09;;;3.49;79.57
84835;BME280;75078;42.636;23.198;2024-03-17T02:00:19;92330.25;;;3.48;78.61
84835;BME280;75078;42.636;23.198;2024-03-17T02:02:44;92333.09;;;3.47;79.38
84835;BME280;75078;42.636;23.198;2024-03-17T02:05:10;92330.09;;;3.45;79.70
84835;BME280;75078;42.636;23.198;2024-03-17T02:07:35;92335.19;;;3.45;80.72
84835;BME280;75078;42.636;23.198;2024-03-17T02:10:01;92333.84;;;3.47;80.27
84835;BME280;75078;42.636;23.198;2024-03-17T02:12:29;92326.66;;;3.49;80.00
84835;BME280;75078;42.636;23.198;2024-03-17T02:14:56;92322.16;;;3.46;79.39
84835;BME280;75078;42.636;23.198;2024-03-17T02:17:21;92326.19;;;3.39;78.98
84835;BME280;75078;42.636;23.198;2024-03-17T02:19:47;92320.78;;;3.32;78.75
84835;BME280;75078;42.636;23.198;2024-03-17T02:22:15;92327.03;;;3.26;78.72
84835;BME280;75078;42.636;23.198;2024-03-17T02:24:42;92327.50;;;3.28;79.19
84835;BME280;75078;42.636;23.198;2024-03-17T02:27:07;92321.22;;;3.25;79.87
84835;BME280;75078;42.636;23.198;2024-03-17T02:29:32;92327.78;;;3.26;80.06
84835;BME280;75078;42.636;23.198;2024-03-17T02:31:58;92324.19;;;3.27;80.70
84835;BME280;75078;42.636;23.198;2024-03-17T02:34:23;92329.44;;;3.31;81.00
84835;BME280;75078;42.636;23.198;2024-03-17T02:36:49;92322.88;;;3.30;80.49
84835;BME280;75078;42.636;23.198;2024-03-17T02:39:14;92322.53;;;3.23;80.61
84835;BME280;75078;42.636;23.198;2024-03-17T02:41:58;92324.03;;;3.24;79.42
84835;BME280;75078;42.636;23.198;2024-03-17T02:44:24;92320.56;;;3.20;79.41
84835;BME280;75078;42.636;23.198;2024-03-17T02:46:49;92321.88;;;3.09;79.82
84835;BME280;75078;42.636;23.198;2024-03-17T02:49:15;92317.97;;;3.03;78.68
84835;BME280;75078;42.636;23.198;2024-03-17T02:51:44;92316.72;;;2.92;79.43
84835;BME280;75078;42.636;23.198;2024-03-17T02:54:10;92324.13;;;2.79;80.14
84835;BME280;75078;42.636;23.198;2024-03-17T02:56:35;92320.53;;;2.80;80.26
84835;BME280;75078;42.636;23.198;2024-03-17T02:59:01;92325.03;;;2.83;80.94
84835;BME280;75078;42.636;23.198;2024-03-17T03:01:26;92323.72;;;2.86;80.06
84835;BME280;75078;42.636;23.198;2024-03-17T03:03:51;92317.28;;;2.88;80.90
84835;BME280;75078;42.636;23.198;2024-03-17T03:06:17;92317.00;;;2.90;80.93
84835;BME280;75078;42.636;23.198;2024-03-17T03:08:45;92314.63;;;2.94;80.81
84835;BME280;75078;42.636;23.198;2024-03-17T03:11:14;92314.75;;;2.88;81.31
84835;BME280;75078;42.636;23.198;2024-03-17T03:13:40;92313.53;;;2.86;81.20
84835;BME280;75078;42.636;23.198;2024-03-17T03:16:07;92315.78;;;2.87;81.06
84835;BME280;75078;42.636;23.198;2024-03-17T03:18:36;92317.88;;;2.85;80.63
84835;BME280;75078;42.636;23.198;2024-03-17T03:21:02;92312.78;;;2.85;80.25
84835;BME280;75078;42.636;23.198;2024-03-17T03:23:27;92313.19;;;2.79;80.25
84835;BME280;75078;42.636;23.198;2024-03-17T03:25:56;92313.78;;;2.76;80.16
84835;BME280;75078;42.636;23.198;2024-03-17T03:28:23;92307.00;;;2.71;80.44
84835;BME280;75078;42.636;23.198;2024-03-17T03:30:48;92311.91;;;2.37;81.77
84835;BME280;75078;42.636;23.198;2024-03-17T03:33:13;92321.06;;;2.25;82.74
84835;BME280;75078;42.636;23.198;2024-03-17T03:35:38;92319.72;;;2.05;83.81
84835;BME280;75078;42.636;23.198;2024-03-17T03:38:04;92322.69;;;2.21;83.43
84835;BME280;75078;42.636;23.198;2024-03-17T03:40:30;92317.25;;;2.13;84.25
84835;BME280;75078;42.636;23.198;2024-03-17T03:42:56;92322.69;;;2.21;83.83
84835;BME280;75078;42.636;23.198;2024-03-17T03:45:22;92319.94;;;2.31;83.36
84835;BME280;75078;42.636;23.198;2024-03-17T03:47:47;92320.38;;;2.33;83.44
84835;BME280;75078;42.636;23.198;2024-03-17T03:50:15;92330.16;;;2.39;83.25
84835;BME280;75078;42.636;23.198;2024-03-17T03:52:41;92322.41;;;2.44;81.97
84835;BME280;75078;42.636;23.198;2024-03-17T03:55:11;92320.16;;;2.43;81.53
84835;BME280;75078;42.636;23.198;2024-03-17T03:57:36;92326.56;;;2.40;82.02
84835;BME280;75078;42.636;23.198;2024-03-17T04:00:05;92330.75;;;2.45;82.51
84835;BME280;75078;42.636;23.198;2024-03-17T04:02:37;92335.28;;;2.48;82.70
84835;BME280;75078;42.636;23.198;2024-03-17T04:05:03;92328.56;;;2.52;83.04
84835;BME280;75078;42.636;23.198;2024-03-17T04:07:29;92331.00;;;2.57;82.81
84835;BME280;75078;42.636;23.198;2024-03-17T04:09:54;92326.34;;;2.50;81.78
84835;BME280;75078;42.636;23.198;2024-03-17T04:12:19;92339.50;;;2.52;81.20
84835;BME280;75078;42.636;23.198;2024-03-17T04:14:45;92337.25;;;2.51;81.16
84835;BME280;75078;42.636;23.198;2024-03-17T04:17:11;92350.81;;;2.46;80.36
84835;BME280;75078;42.636;23.198;2024-03-17T04:19:37;92350.38;;;2.44;80.47
84835;BME280;75078;42.636;23.198;2024-03-17T04:22:02;92349.88;;;2.42;81.17
84835;BME280;75078;42.636;23.198;2024-03-17T04:24:27;92355.72;;;2.43;81.32
84835;BME280;75078;42.636;23.198;2024-03-17T04:26:53;92360.22;;;2.46;81.64
84835;BME280;75078;42.636;23.198;2024-03-17T04:29:18;92355.59;;;2.48;81.78
84835;BME280;75078;42.636;23.198;2024-03-17T04:31:45;92364.91;;;2.52;82.41
84835;BME280;75078;42.636;23.198;2024-03-17T04:34:14;92355.19;;;2.54;81.48
84835;BME280;75078;42.636;23.198;2024-03-17T04:36:40;92358.97;;;2.57;81.15
84835;BME280;75078;42.636;23.198;2024-03-17T04:39:05;92364.91;;;2.52;81.32
84835;BME280;75078;42.636;23.198;2024-03-17T04:41:33;92368.78;;;2.50;80.51
84835;BME280;75078;42.636;23.198;2024-03-17T04:43:59;92373.97;;;2.45;80.38
84835;BME280;75078;42.636;23.198;2024-03-17T04:46:24;92370.94;;;2.43;80.35
84835;BME280;75078;42.636;23.198;2024-03-17T04:48:50;92376.78;;;2.43;80.34
84835;BME280;75078;42.636;23.198;2024-03-17T04:51:16;92375.69;;;2.36;80.97
84835;BME280;75078;42.636;23.198;2024-03-17T04:53:41;92375.22;;;2.34;81.52
84835;BME280;75078;42.636;23.198;2024-03-17T04:56:08;92381.63;;;2.31;82.63
84835;BME280;75078;42.636;23.198;2024-03-17T04:58:34;92385.78;;;2.27;83.39
84835;BME280;75078;42.636;23.198;2024-03-17T05:01:09;92389.38;;;2.12;84.84
84835;BME280;75078;42.636;23.198;2024-03-17T05:03:34;92390.69;;;2.24;84.19
84835;BME280;75078;42.636;23.198;2024-03-17T05:06:04;92390.19;;;2.35;83.38
84835;BME280;75078;42.636;23.198;2024-03-17T05:08:31;92388.47;;;2.44;83.37
84835;BME280;75078;42.636;23.198;2024-03-17T05:13:24;92394.81;;;2.55;80.53
84835;BME280;75078;42.636;23.198;2024-03-17T05:15:49;92399.63;;;2.57;81.15
84835;BME280;75078;42.636;23.198;2024-03-17T05:18:14;92401.59;;;2.60;82.13
84835;BME280;75078;42.636;23.198;2024-03-17T05:20:40;92406.28;;;2.66;82.34
84835;BME280;75078;42.636;23.198;2024-03-17T05:23:05;92410.66;;;2.74;82.96
84835;BME280;75078;42.636;23.198;2024-03-17T05:25:30;92411.31;;;2.80;82.08
84835;BME280;75078;42.636;23.198;2024-03-17T05:28:01;92420.16;;;2.82;81.25
84835;BME280;75078;42.636;23.198;2024-03-17T05:30:27;92417.78;;;2.86;81.11
84835;BME280;75078;42.636;23.198;2024-03-17T05:32:52;92413.34;;;2.92;80.78
84835;BME280;75078;42.636;23.198;2024-03-17T05:35:17;92414.25;;;2.96;80.75
84835;BME280;75078;42.636;23.198;2024-03-17T05:37:43;92411.41;;;2.97;80.89
84835;BME280;75078;42.636;23.198;2024-03-17T05:40:10;92410.44;;;3.07;81.27
84835;BME280;75078;42.636;23.198;2024-03-17T05:42:37;92409.72;;;3.15;81.68
84835;BME280;75078;42.636;23.198;2024-03-17T05:45:03;92412.59;;;3.22;82.13
84835;BME280;75078;42.636;23.198;2024-03-17T05:47:28;92407.84;;;3.29;82.28
84835;BME280;75078;42.636;23.198;2024-03-17T05:49:54;92408.19;;;3.36;83.15
84835;BME280;75078;42.636;23.198;2024-03-17T05:52:21;92410.78;;;3.44;83.53
84835;BME280;75078;42.636;23.198;2024-03-17T05:54:47;92406.03;;;3.51;83.00
84835;BME280;75078;42.636;23.198;2024-03-17T05:57:12;92408.56;;;3.51;83.39
84835;BME280;75078;42.636;23.198;2024-03-17T05:59:39;92414.63;;;3.64;84.52
84835;BME280;75078;42.636;23.198;2024-03-17T06:02:04;92406.38;;;3.67;83.24
84835;BME280;75078;42.636;23.198;2024-03-17T06:04:30;92417.00;;;3.69;83.12
84835;BME280;75078;42.636;23.198;2024-03-17T06:06:55;92411.66;;;3.79;84.19
84835;BME280;75078;42.636;23.198;2024-03-17T06:09:20;92415.00;;;3.88;83.79
84835;BME280;75078;42.636;23.198;2024-03-17T06:11:46;92417.56;;;3.97;82.69
84835;BME280;75078;42.636;23.198;2024-03-17T06:14:11;92415.03;;;4.05;82.69
84835;BME280;75078;42.636;23.198;2024-03-17T06:16:38;92415.94;;;4.09;82.67
84835;BME280;75078;42.636;23.198;2024-03-17T06:19:03;92418.22;;;4.19;82.23
84835;BME280;75078;42.636;23.198;2024-03-17T06:21:29;92421.53;;;4.37;82.14
84835;BME280;75078;42.636;23.198;2024-03-17T06:23:54;92419.16;;;4.49;80.97
84835;BME280;75078;42.636;23.198;2024-03-17T06:26:19;92422.03;;;4.65;80.91
84835;BME280;75078;42.636;23.198;2024-03-17T06:28:46;92421.88;;;4.70;79.79
84835;BME280;75078;42.636;23.198;2024-03-17T06:31:11;92427.28;;;4.85;79.56
84835;BME280;75078;42.636;23.198;2024-03-17T06:33:37;92428.16;;;4.98;80.29
84835;BME280;75078;42.636;23.198;2024-03-17T06:36:05;92438.38;;;5.15;79.35
84835;BME280;75078;42.636;23.198;2024-03-17T06:38:32;92434.28;;;5.31;79.58
84835;BME280;75078;42.636;23.198;2024-03-17T06:40:57;92437.28;;;5.42;78.61
84835;BME280;75078;42.636;23.198;2024-03-17T06:43:22;92438.59;;;5.48;78.50
84835;BME280;75078;42.636;23.198;2024-03-17T06:45:56;92440.09;;;5.57;77.88
84835;BME280;75078;42.636;23.198;2024-03-17T06:48:22;92442.75;;;5.69;77.55
84835;BME280;75078;42.636;23.198;2024-03-17T06:50:48;92439.84;;;5.79;78.83
84835;BME280;75078;42.636;23.198;2024-03-17T06:53:13;92445.28;;;5.87;78.29
84835;BME280;75078;42.636;23.198;2024-03-17T06:55:38;92446.00;;;5.96;77.92
84835;BME280;75078;42.636;23.198;2024-03-17T06:58:03;92435.88;;;6.08;77.19
84835;BME280;75078;42.636;23.198;2024-03-17T07:00:29;92438.50;;;6.20;76.96
84835;BME280;75078;42.636;23.198;2024-03-17T07:02:54;92442.22;;;6.31;76.76
84835;BME280;75078;42.636;23.198;2024-03-17T07:05:20;92439.75;;;6.43;75.47
84835;BME280;75078;42.636;23.198;2024-03-17T07:07:45;92443.44;;;6.54;75.88
84835;BME280;75078;42.636;23.198;2024-03-17T07:10:12;92433.72;;;6.68;74.96
84835;BME280;75078;42.636;23.198;2024-03-17T07:12:41;92437.56;;;6.74;73.30
84835;BME280;75078;42.636;23.198;2024-03-17T07:15:07;92442.34;;;6.84;74.64
84835;BME280;75078;42.636;23.198;2024-03-17T07:17:33;92440.56;;;6.97;72.87
84835;BME280;75078;42.636;23.198;2024-03-17T07:19:59;92439.59;;;7.10;73.98
84835;BME280;75078;42.636;23.198;2024-03-17T07:22:25;92440.13;;;7.15;73.31
84835;BME280;75078;42.636;23.198;2024-03-17T07:24:54;92441.00;;;7.19;72.01
84835;BME280;75078;42.636;23.198;2024-03-17T07:27:22;92438.47;;;7.32;72.17
84835;BME280;75078;42.636;23.198;2024-03-17T07:29:47;92444.28;;;7.41;71.93
84835;BME280;75078;42.636;23.198;2024-03-17T07:32:12;92445.28;;;7.60;71.41
84835;BME280;75078;42.636;23.198;2024-03-17T07:34:38;92442.44;;;7.86;70.90
84835;BME280;75078;42.636;23.198;2024-03-17T07:37:03;92432.00;;;8.15;69.75
84835;BME280;75078;42.636;23.198;2024-03-17T07:39:32;92439.50;;;8.56;68.67
84835;BME280;75078;42.636;23.198;2024-03-17T07:42:01;92438.81;;;8.84;66.82
84835;BME280;75078;42.636;23.198;2024-03-17T07:44:29;92435.69;;;8.90;66.44
84835;BME280;75078;42.636;23.198;2024-03-17T07:47:00;92435.00;;;9.05;67.10
84835;BME280;75078;42.636;23.198;2024-03-17T07:49:25;92440.41;;;9.16;67.64
84835;BME280;75078;42.636;23.198;2024-03-17T07:51:51;92431.50;;;8.98;65.63
84835;BME280;75078;42.636;23.198;2024-03-17T07:54:16;92439.00;;;8.91;66.08
84835;BME280;75078;42.636;23.198;2024-03-17T07:56:44;92441.56;;;8.91;67.78
84835;BME280;75078;42.636;23.198;2024-03-17T07:59:09;92434.72;;;8.95;67.84
84835;BME280;75078;42.636;23.198;2024-03-17T08:01:38;92441.22;;;9.04;66.28
84835;BME280;75078;42.636;23.198;2024-03-17T08:04:04;92432.56;;;8.97;66.93
84835;BME280;75078;42.636;23.198;2024-03-17T08:06:29;92433.09;;;9.02;67.29
84835;BME280;75078;42.636;23.198;2024-03-17T08:08:55;92434.06;;;8.98;67.11
84835;BME280;75078;42.636;23.198;2024-03-17T08:11:21;92438.94;;;9.03;66.43
84835;BME280;75078;42.636;23.198;2024-03-17T08:13:46;92435.19;;;8.73;66.89
84835;BME280;75078;42.636;23.198;2024-03-17T08:16:14;92441.38;;;8.84;68.86
84835;BME280;75078;42.636;23.198;2024-03-17T08:18:39;92433.44;;;8.89;67.75
84835;BME280;75078;42.636;23.198;2024-03-17T08:21:05;92442.97;;;8.88;67.33
84835;BME280;75078;42.636;23.198;2024-03-17T08:23:34;92426.81;;;8.88;68.17
84835;BME280;75078;42.636;23.198;2024-03-17T08:26:04;92446.78;;;8.94;67.53
84835;BME280;75078;42.636;23.198;2024-03-17T08:28:30;92442.34;;;9.07;67.92
84835;BME280;75078;42.636;23.198;2024-03-17T08:30:57;92443.13;;;9.07;67.57
84835;BME280;75078;42.636;23.198;2024-03-17T08:33:23;92442.97;;;9.16;68.55
84835;BME280;75078;42.636;23.198;2024-03-17T08:36:02;92440.56;;;9.35;67.56
84835;BME280;75078;42.636;23.198;2024-03-17T08:38:30;92430.47;;;9.42;66.33
84835;BME280;75078;42.636;23.198;2024-03-17T08:40:57;92438.59;;;9.44;64.45
84835;BME280;75078;42.636;23.198;2024-03-17T08:43:23;92431.41;;;9.50;65.55
84835;BME280;75078;42.636;23.198;2024-03-17T08:46:07;92428.47;;;9.79;63.40
84835;BME280;75078;42.636;23.198;2024-03-17T08:48:35;92426.31;;;10.12;63.37
84835;BME280;75078;42.636;23.198;2024-03-17T08:51:02;92419.34;;;10.63;61.33
84835;BME280;75078;42.636;23.198;2024-03-17T08:53:28;92417.84;;;10.97;60.61
84835;BME280;75078;42.636;23.198;2024-03-17T08:55:54;92419.13;;;11.06;58.08
84835;BME280;75078;42.636;23.198;2024-03-17T08:58:20;92417.72;;;11.28;56.10
84835;BME280;75078;42.636;23.198;2024-03-17T09:00:46;92412.06;;;11.41;55.54
84835;BME280;75078;42.636;23.198;2024-03-17T09:03:11;92415.84;;;11.67;55.29
84835;BME280;75078;42.636;23.198;2024-03-17T09:05:39;92406.28;;;11.90;52.60
84835;BME280;75078;42.636;23.198;2024-03-17T09:08:05;92403.81;;;11.97;53.98
84835;BME280;75078;42.636;23.198;2024-03-17T09:10:41;92406.47;;;12.00;52.50
84835;BME280;75078;42.636;23.198;2024-03-17T09:13:07;92405.13;;;12.10;51.27
84835;BME280;75078;42.636;23.198;2024-03-17T09:15:37;92409.31;;;12.18;49.06
84835;BME280;75078;42.636;23.198;2024-03-17T09:18:03;92406.34;;;12.42;49.30
84835;BME280;75078;42.636;23.198;2024-03-17T09:20:28;92395.63;;;12.66;48.50
84835;BME280;75078;42.636;23.198;2024-03-17T09:22:54;92403.97;;;12.56;48.32
84835;BME280;75078;42.636;23.198;2024-03-17T09:25:19;92402.88;;;12.83;50.96
84835;BME280;75078;42.636;23.198;2024-03-17T09:27:45;92398.19;;;12.92;47.56
84835;BME280;75078;42.636;23.198;2024-03-17T09:30:10;92408.88;;;13.21;49.85
84835;BME280;75078;42.636;23.198;2024-03-17T09:32:36;92395.53;;;13.19;46.52
84835;BME280;75078;42.636;23.198;2024-03-17T09:35:02;92392.63;;;13.20;45.23
84835;BME280;75078;42.636;23.198;2024-03-17T09:37:28;92394.19;;;13.28;48.55
84835;BME280;75078;42.636;23.198;2024-03-17T09:39:56;92396.94;;;13.09;46.18
84835;BME280;75078;42.636;23.198;2024-03-17T09:42:23;92399.50;;;12.79;46.47
84835;BME280;75078;42.636;23.198;2024-03-17T09:44:49;92395.00;;;12.73;45.41
84835;BME280;75078;42.636;23.198;2024-03-17T09:47:19;92395.91;;;12.87;45.42
84835;BME280;75078;42.636;23.198;2024-03-17T09:49:48;92390.00;;;13.17;47.59
84835;BME280;75078;42.636;23.198;2024-03-17T09:52:22;92400.56;;;13.38;45.83
84835;BME280;75078;42.636;23.198;2024-03-17T09:55:08;92390.00;;;13.50;44.94
84835;BME280;75078;42.636;23.198;2024-03-17T09:57:38;92392.44;;;13.39;45.04
84835;BME280;75078;42.636;23.198;2024-03-17T10:00:10;92393.50;;;13.31;40.91
84835;BME280;75078;42.636;23.198;2024-03-17T10:02:45;92391.19;;;13.23;42.69
84835;BME280;75078;42.636;23.198;2024-03-17T10:05:21;92394.09;;;12.91;42.62
84835;BME280;75078;42.636;23.198;2024-03-17T10:07:48;92399.34;;;12.98;42.33
84835;BME280;75078;42.636;23.198;2024-03-17T10:10:17;92400.81;;;12.66;40.72
84835;BME280;75078;42.636;23.198;2024-03-17T10:12:43;92401.38;;;12.53;42.88
84835;BME280;75078;42.636;23.198;2024-03-17T10:15:11;92394.69;;;12.52;42.91
84835;BME280;75078;42.636;23.198;2024-03-17T10:17:40;92398.72;;;12.23;42.98
84835;BME280;75078;42.636;23.198;2024-03-17T10:20:23;92406.00;;;12.17;44.26
84835;BME280;75078;42.636;23.198;2024-03-17T10:23:00;92403.16;;;12.26;43.01
84835;BME280;75078;42.636;23.198;2024-03-17T10:25:27;92406.47;;;12.23;40.22
84835;BME280;75078;42.636;23.198;2024-03-17T10:27:53;92400.78;;;12.14;40.83
84835;BME280;75078;42.636;23.198;2024-03-17T10:30:19;92398.84;;;11.85;39.67
84835;BME280;75078;42.636;23.198;2024-03-17T10:32:45;92396.88;;;12.01;42.35
84835;BME280;75078;42.636;23.198;2024-03-17T10:35:28;92402.34;;;11.73;44.20
84835;BME280;75078;42.636;23.198;2024-03-17T10:37:58;92406.06;;;11.76;44.09
84835;BME280;75078;42.636;23.198;2024-03-17T10:40:25;92403.50;;;11.76;44.11
84835;BME280;75078;42.636;23.198;2024-03-17T10:42:50;92403.91;;;11.78;42.20
84835;BME280;75078;42.636;23.198;2024-03-17T10:45:16;92396.47;;;11.76;44.93
84835;BME280;75078;42.636;23.198;2024-03-17T10:47:47;92405.84;;;11.65;44.63
84835;BME280;75078;42.636;23.198;2024-03-17T10:50:17;92404.25;;;11.57;44.08
84835;BME280;75078;42.636;23.198;2024-03-17T10:52:45;92399.69;;;11.70;45.37
84835;BME280;75078;42.636;23.198;2024-03-17T10:55:24;92397.34;;;11.84;45.36
84835;BME280;75078;42.636;23.198;2024-03-17T10:57:51;92394.66;;;11.77;46.21
84835;BME280;75078;42.636;23.198;2024-03-17T11:00:22;92399.25;;;11.87;45.89
84835;BME280;75078;42.636;23.198;2024-03-17T11:02:49;92396.97;;;11.82;46.97
84835;BME280;75078;42.636;23.198;2024-03-17T11:05:22;92397.06;;;11.89;48.56
84835;BME280;75078;42.636;23.198;2024-03-17T11:07:50;92396.59;;;11.83;49.72
84835;BME280;75078;42.636;23.198;2024-03-17T11:10:22;92395.34;;;11.74;49.53
84835;BME280;75078;42.636;23.198;2024-03-17T11:17:56;92391.53;;;11.87;48.50
84835;BME280;75078;42.636;23.198;2024-03-17T11:21:03;92394.63;;;11.96;48.42
84835;BME280;75078;42.636;23.198;2024-03-17T11:23:41;92384.50;;;12.10;48.16
84835;BME280;75078;42.636;23.198;2024-03-17T11:26:06;92379.59;;;12.28;46.44
84835;BME280;75078;42.636;23.198;2024-03-17T11:31:47;92367.22;;;12.40;41.91
84835;BME280;75078;42.636;23.198;2024-03-17T11:34:31;92368.78;;;12.74;43.12
84835;BME280;75078;42.636;23.198;2024-03-17T11:36:58;92366.44;;;13.25;44.13
84835;BME280;75078;42.636;23.198;2024-03-17T11:39:46;92371.59;;;13.58;44.16
84835;BME280;75078;42.636;23.198;2024-03-17T11:42:14;92360.78;;;13.90;40.36
84835;BME280;75078;42.636;23.198;2024-03-17T11:47:23;92367.41;;;13.47;40.01
84835;BME280;75078;42.636;23.198;2024-03-17T11:49:50;92354.44;;;13.43;40.16
84835;BME280;75078;42.636;23.198;2024-03-17T11:52:16;92353.66;;;13.39;40.24
84835;BME280;75078;42.636;23.198;2024-03-17T11:54:43;92352.59;;;13.44;40.44
84835;BME280;75078;42.636;23.198;2024-03-17T11:57:13;92345.50;;;13.34;40.34
84835;BME280;75078;42.636;23.198;2024-03-17T11:59:40;92359.13;;;13.31;42.53
84835;BME280;75078;42.636;23.198;2024-03-17T12:02:19;92358.16;;;13.46;41.27
84835;BME280;75078;42.636;23.198;2024-03-17T12:04:44;92352.91;;;13.39;40.89
84835;BME280;75078;42.636;23.198;2024-03-17T12:07:17;92344.28;;;13.24;42.10
84835;BME280;75078;42.636;23.198;2024-03-17T12:09:44;92349.59;;;13.05;44.41
84835;BME280;75078;42.636;23.198;2024-03-17T12:12:20;92349.66;;;13.09;43.24
84835;BME280;75078;42.636;23.198;2024-03-17T12:14:47;92350.25;;;12.98;44.08
84835;BME280;75078;42.636;23.198;2024-03-17T12:17:14;92351.41;;;12.71;43.80
84835;BME280;75078;42.636;23.198;2024-03-17T12:19:40;92355.75;;;12.64;45.80
84835;BME280;75078;42.636;23.198;2024-03-17T12:22:15;92358.09;;;12.46;45.78
84835;BME280;75078;42.636;23.198;2024-03-17T12:24:43;92352.91;;;12.16;46.57
84835;BME280;75078;42.636;23.198;2024-03-17T12:27:17;92354.97;;;12.07;46.24
84835;BME280;75078;42.636;23.198;2024-03-17T12:29:43;92358.88;;;11.98;47.54
84835;BME280;75078;42.636;23.198;2024-03-17T12:32:13;92359.63;;;11.98;48.84
84835;BME280;75078;42.636;23.198;2024-03-17T12:34:42;92358.09;;;11.94;48.96
84835;BME280;75078;42.636;23.198;2024-03-17T12:37:15;92357.38;;;11.97;48.86
84835;BME280;75078;42.636;23.198;2024-03-17T12:39:41;92360.81;;;12.04;48.94
84835;BME280;75078;42.636;23.198;2024-03-17T12:42:09;92352.44;;;12.11;48.17
84835;BME280;75078;42.636;23.198;2024-03-17T12:44:37;92349.19;;;12.14;48.25
84835;BME280;75078;42.636;23.198;2024-03-17T12:47:08;92352.53;;;12.18;48.49
84835;BME280;75078;42.636;23.198;2024-03-17T12:49:34;92352.19;;;12.19;49.75
84835;BME280;75078;42.636;23.198;2024-03-17T12:52:01;92342.38;;;12.02;50.21
84835;BME280;75078;42.636;23.198;2024-03-17T12:54:27;92349.88;;;12.11;49.59
84835;BME280;75078;42.636;23.198;2024-03-17T12:57:06;92338.75;;;12.07;49.53
84835;BME280;75078;42.636;23.198;2024-03-17T12:59:51;92342.88;;;12.11;50.90
84835;BME280;75078;42.636;23.198;2024-03-17T13:02:40;92343.81;;;12.00;52.23
84835;BME280;75078;42.636;23.198;2024-03-17T13:05:16;92338.94;;;11.72;52.72
84835;BME280;75078;42.636;23.198;2024-03-17T13:07:43;92341.06;;;11.67;52.37
84835;BME280;75078;42.636;23.198;2024-03-17T13:10:14;92343.91;;;11.62;53.44
84835;BME280;75078;42.636;23.198;2024-03-17T13:12:40;92341.38;;;11.42;53.24